sensor_id;sensor_type;location;lat;lon;timestamp;P1;durP1;ratioP1;P2;durP2;ratioP2
58412;SDS011;44209;52.952;6.790;2024-01-27T00:01:39;26.60;;;5.53;;
58412;SDS011;44209;52.952;6.790;2024-01-27T00:04:05;20.80;;;5.40;;
58412;SDS011;44209;52.952;6.790;2024-01-27T00:06:31;24.70;;;5.93;;
58412;SDS011;44209;52.952;6.790;2024-01-27T00:08:56;22.03;;;4.53;;
58412;SDS011;44209;52.952;6.790;2024-01-27T00:11:23;23.67;;;5.60;;
58412;SDS011;44209;52.952;6.790;2024-01-27T00:13:49;21.80;;;6.13;;
58412;SDS011;44209;52.952;6.790;2024-01-27T00:16:15;24.77;;;6.23;;
58412;SDS011;44209;52.952;6.790;2024-01-27T00:18:41;22.70;;;4.33;;
58412;SDS011;44209;52.952;6.790;2024-01-27T00:21:07;23.13;;;5.03;;
58412;SDS011;44209;52.952;6.790;2024-01-27T00:23:33;18.50;;;4.93;;
58412;SDS011;44209;52.952;6.790;2024-01-27T00:26:02;21.60;;;5.03;;
58412;SDS011;44209;52.952;6.790;2024-01-27T00:28:27;24.47;;;4.63;;
58412;SDS011;44209;52.952;6.790;2024-01-27T00:30:53;20.03;;;5.90;;
58412;SDS011;44209;52.952;6.790;2024-01-27T00:33:19;16.90;;;4.67;;
58412;SDS011;44209;52.952;6.790;2024-01-27T00:35:45;22.80;;;5.17;;
58412;SDS011;44209;52.952;6.790;2024-01-27T00:38:11;19.43;;;4.50;;
58412;SDS011;44209;52.952;6.790;2024-01-27T00:40:36;28.63;;;5.27;;
58412;SDS011;44209;52.952;6.790;2024-01-27T00:43:02;20.87;;;5.03;;
58412;SDS011;44209;52.952;6.790;2024-01-27T00:45:28;18.47;;;4.53;;
58412;SDS011;44209;52.952;6.790;2024-01-27T00:47:55;26.23;;;5.77;;
58412;SDS011;44209;52.952;6.790;2024-01-27T00:50:21;19.80;;;4.63;;
58412;SDS011;44209;52.952;6.790;2024-01-27T00:52:47;21.10;;;4.80;;
58412;SDS011;44209;52.952;6.790;2024-01-27T00:55:14;22.47;;;5.00;;
58412;SDS011;44209;52.952;6.790;2024-01-27T00:57:40;24.93;;;5.43;;
58412;SDS011;44209;52.952;6.790;2024-01-27T01:00:07;22.23;;;4.90;;
58412;SDS011;44209;52.952;6.790;2024-01-27T01:02:34;19.23;;;4.63;;
58412;SDS011;44209;52.952;6.790;2024-01-27T01:05:00;20.33;;;4.80;;
58412;SDS011;44209;52.952;6.790;2024-01-27T01:07:26;20.97;;;4.80;;
58412;SDS011;44209;52.952;6.790;2024-01-27T01:09:52;17.63;;;4.50;;
58412;SDS011;44209;52.952;6.790;2024-01-27T01:12:17;25.87;;;4.97;;
58412;SDS011;44209;52.952;6.790;2024-01-27T01:14:43;17.57;;;4.70;;
58412;SDS011;44209;52.952;6.790;2024-01-27T01:17:09;16.37;;;4.67;;
58412;SDS011;44209;52.952;6.790;2024-01-27T01:19:38;26.37;;;5.50;;
58412;SDS011;44209;52.952;6.790;2024-01-27T01:22:05;30.50;;;5.80;;
58412;SDS011;44209;52.952;6.790;2024-01-27T01:24:32;23.03;;;5.33;;
58412;SDS011;44209;52.952;6.790;2024-01-27T01:26:58;26.53;;;5.47;;
58412;SDS011;44209;52.952;6.790;2024-01-27T01:29:24;17.67;;;4.43;;
58412;SDS011;44209;52.952;6.790;2024-01-27T01:31:50;21.60;;;5.07;;
58412;SDS011;44209;52.952;6.790;2024-01-27T01:34:15;16.67;;;5.10;;
58412;SDS011;44209;52.952;6.790;2024-01-27T01:36:41;25.37;;;5.17;;
58412;SDS011;44209;52.952;6.790;2024-01-27T01:39:07;17.77;;;4.83;;
58412;SDS011;44209;52.952;6.790;2024-01-27T01:41:35;20.43;;;5.50;;
58412;SDS011;44209;52.952;6.790;2024-01-27T01:44:00;22.13;;;4.83;;
58412;SDS011;44209;52.952;6.790;2024-01-27T01:46:26;19.80;;;4.77;;
58412;SDS011;44209;52.952;6.790;2024-01-27T01:48:52;19.13;;;4.77;;
58412;SDS011;44209;52.952;6.790;2024-01-27T01:51:18;20.33;;;4.60;;
58412;SDS011;44209;52.952;6.790;2024-01-27T01:53:48;14.83;;;4.07;;
58412;SDS011;44209;52.952;6.790;2024-01-27T01:56:14;20.33;;;4.67;;
58412;SDS011;44209;52.952;6.790;2024-01-27T01:58:40;17.93;;;4.53;;
58412;SDS011;44209;52.952;6.790;2024-01-27T02:01:06;13.27;;;4.17;;
58412;SDS011;44209;52.952;6.790;2024-01-27T02:03:32;18.37;;;4.37;;
58412;SDS011;44209;52.952;6.790;2024-01-27T02:05:58;13.63;;;4.43;;
58412;SDS011;44209;52.952;6.790;2024-01-27T02:08:24;22.67;;;4.90;;
58412;SDS011;44209;52.952;6.790;2024-01-27T02:10:49;25.93;;;6.27;;
58412;SDS011;44209;52.952;6.790;2024-01-27T02:13:19;20.17;;;5.80;;
58412;SDS011;44209;52.952;6.790;2024-01-27T02:15:47;21.43;;;4.63;;
58412;SDS011;44209;52.952;6.790;2024-01-27T02:18:13;17.20;;;4.67;;
58412;SDS011;44209;52.952;6.790;2024-01-27T02:20:39;20.27;;;4.60;;
58412;SDS011;44209;52.952;6.790;2024-01-27T02:23:05;24.77;;;5.07;;
58412;SDS011;44209;52.952;6.790;2024-01-27T02:25:35;19.70;;;5.17;;
58412;SDS011;44209;52.952;6.790;2024-01-27T02:28:01;19.63;;;4.33;;
58412;SDS011;44209;52.952;6.790;2024-01-27T02:30:29;18.60;;;5.17;;
58412;SDS011;44209;52.952;6.790;2024-01-27T02:32:56;19.37;;;4.80;;
58412;SDS011;44209;52.952;6.790;2024-01-27T02:35:22;24.23;;;4.77;;
58412;SDS011;44209;52.952;6.790;2024-01-27T02:37:48;17.47;;;4.37;;
58412;SDS011;44209;52.952;6.790;2024-01-27T02:40:14;17.33;;;5.17;;
58412;SDS011;44209;52.952;6.790;2024-01-27T02:42:40;24.93;;;5.13;;
58412;SDS011;44209;52.952;6.790;2024-01-27T02:45:09;17.63;;;4.50;;
58412;SDS011;44209;52.952;6.790;2024-01-27T02:47:42;22.50;;;4.60;;
58412;SDS011;44209;52.952;6.790;2024-01-27T02:50:08;14.60;;;4.23;;
58412;SDS011;44209;52.952;6.790;2024-01-27T02:52:34;17.53;;;4.40;;
58412;SDS011;44209;52.952;6.790;2024-01-27T02:55:00;20.10;;;4.77;;
58412;SDS011;44209;52.952;6.790;2024-01-27T02:57:26;17.50;;;4.90;;
58412;SDS011;44209;52.952;6.790;2024-01-27T02:59:52;28.93;;;4.93;;
58412;SDS011;44209;52.952;6.790;2024-01-27T03:02:17;20.30;;;4.27;;
58412;SDS011;44209;52.952;6.790;2024-01-27T03:04:43;19.67;;;5.53;;
58412;SDS011;44209;52.952;6.790;2024-01-27T03:07:09;16.37;;;4.20;;
58412;SDS011;44209;52.952;6.790;2024-01-27T03:09:35;18.37;;;4.40;;
58412;SDS011;44209;52.952;6.790;2024-01-27T03:12:01;24.20;;;4.77;;
58412;SDS011;44209;52.952;6.790;2024-01-27T03:14:27;18.80;;;5.43;;
58412;SDS011;44209;52.952;6.790;2024-01-27T03:16:54;13.13;;;4.03;;
58412;SDS011;44209;52.952;6.790;2024-01-27T03:19:19;14.93;;;4.50;;
58412;SDS011;44209;52.952;6.790;2024-01-27T03:21:45;15.97;;;4.50;;
58412;SDS011;44209;52.952;6.790;2024-01-27T03:24:11;14.40;;;4.10;;
58412;SDS011;44209;52.952;6.790;2024-01-27T03:26:37;18.07;;;4.07;;
58412;SDS011;44209;52.952;6.790;2024-01-27T03:29:02;23.53;;;4.83;;
58412;SDS011;44209;52.952;6.790;2024-01-27T03:31:34;22.53;;;4.70;;
58412;SDS011;44209;52.952;6.790;2024-01-27T03:34:00;23.45;;;4.20;;
58412;SDS011;44209;52.952;6.790;2024-01-27T03:36:26;18.30;;;4.50;;
58412;SDS011;44209;52.952;6.790;2024-01-27T03:38:52;15.60;;;3.80;;
58412;SDS011;44209;52.952;6.790;2024-01-27T03:41:19;16.80;;;4.30;;
58412;SDS011;44209;52.952;6.790;2024-01-27T03:43:45;20.00;;;4.57;;
58412;SDS011;44209;52.952;6.790;2024-01-27T03:46:11;23.23;;;6.00;;
58412;SDS011;44209;52.952;6.790;2024-01-27T03:48:36;18.03;;;5.50;;
58412;SDS011;44209;52.952;6.790;2024-01-27T03:51:03;19.43;;;4.90;;
58412;SDS011;44209;52.952;6.790;2024-01-27T03:53:28;17.47;;;5.30;;
58412;SDS011;44209;52.952;6.790;2024-01-27T03:55:55;15.73;;;4.20;;
58412;SDS011;44209;52.952;6.790;2024-01-27T03:58:23;17.50;;;4.23;;
58412;SDS011;44209;52.952;6.790;2024-01-27T04:00:51;17.87;;;4.37;;
58412;SDS011;44209;52.952;6.790;2024-01-27T04:03:16;18.73;;;4.80;;
58412;SDS011;44209;52.952;6.790;2024-01-27T04:05:42;19.30;;;5.17;;
58412;SDS011;44209;52.952;6.790;2024-01-27T04:08:08;14.53;;;4.10;;
58412;SDS011;44209;52.952;6.790;2024-01-27T04:10:36;21.87;;;5.10;;
58412;SDS011;44209;52.952;6.790;2024-01-27T04:13:02;24.17;;;4.53;;
58412;SDS011;44209;52.952;6.790;2024-01-27T04:15:28;19.17;;;4.83;;
58412;SDS011;44209;52.952;6.790;2024-01-27T04:17:55;17.40;;;5.00;;
58412;SDS011;44209;52.952;6.790;2024-01-27T04:20:21;18.33;;;5.00;;
58412;SDS011;44209;52.952;6.790;2024-01-27T04:22:47;18.47;;;4.33;;
58412;SDS011;44209;52.952;6.790;2024-01-27T04:25:12;17.90;;;4.53;;
58412;SDS011;44209;52.952;6.790;2024-01-27T04:27:38;18.97;;;4.70;;
58412;SDS011;44209;52.952;6.790;2024-01-27T04:30:06;20.90;;;5.30;;
58412;SDS011;44209;52.952;6.790;2024-01-27T04:32:32;14.07;;;4.40;;
58412;SDS011;44209;52.952;6.790;2024-01-27T04:34:58;18.80;;;4.83;;
58412;SDS011;44209;52.952;6.790;2024-01-27T04:37:29;13.60;;;4.80;;
58412;SDS011;44209;52.952;6.790;2024-01-27T04:39:55;19.03;;;5.07;;
58412;SDS011;44209;52.952;6.790;2024-01-27T04:42:20;22.53;;;4.73;;
58412;SDS011;44209;52.952;6.790;2024-01-27T04:44:46;16.47;;;4.40;;
58412;SDS011;44209;52.952;6.790;2024-01-27T04:47:12;16.47;;;5.10;;
58412;SDS011;44209;52.952;6.790;2024-01-27T04:49:37;15.33;;;4.60;;
58412;SDS011;44209;52.952;6.790;2024-01-27T04:52:03;19.87;;;5.23;;
58412;SDS011;44209;52.952;6.790;2024-01-27T04:54:29;18.53;;;4.40;;
58412;SDS011;44209;52.952;6.790;2024-01-27T04:56:55;17.40;;;4.87;;
58412;SDS011;44209;52.952;6.790;2024-01-27T04:59:20;18.60;;;4.67;;
58412;SDS011;44209;52.952;6.790;2024-01-27T05:01:46;17.87;;;4.93;;
58412;SDS011;44209;52.952;6.790;2024-01-27T05:04:12;16.90;;;4.63;;
58412;SDS011;44209;52.952;6.790;2024-01-27T05:06:38;17.23;;;4.30;;
58412;SDS011;44209;52.952;6.790;2024-01-27T05:09:08;22.43;;;4.73;;
58412;SDS011;44209;52.952;6.790;2024-01-27T05:11:34;22.00;;;5.07;;
58412;SDS011;44209;52.952;6.790;2024-01-27T05:14:00;18.80;;;4.37;;
58412;SDS011;44209;52.952;6.790;2024-01-27T05:16:26;22.07;;;5.27;;
58412;SDS011;44209;52.952;6.790;2024-01-27T05:18:52;17.20;;;4.83;;
58412;SDS011;44209;52.952;6.790;2024-01-27T05:21:18;18.60;;;4.87;;
58412;SDS011;44209;52.952;6.790;2024-01-27T05:23:44;16.30;;;5.27;;
58412;SDS011;44209;52.952;6.790;2024-01-27T05:26:10;19.80;;;5.27;;
58412;SDS011;44209;52.952;6.790;2024-01-27T05:28:39;21.90;;;5.30;;
58412;SDS011;44209;52.952;6.790;2024-01-27T05:31:07;20.67;;;5.50;;
58412;SDS011;44209;52.952;6.790;2024-01-27T05:33:34;20.73;;;5.03;;
58412;SDS011;44209;52.952;6.790;2024-01-27T05:36:00;20.13;;;5.23;;
58412;SDS011;44209;52.952;6.790;2024-01-27T05:38:26;21.47;;;5.77;;
58412;SDS011;44209;52.952;6.790;2024-01-27T05:40:53;17.00;;;5.70;;
58412;SDS011;44209;52.952;6.790;2024-01-27T05:43:19;19.70;;;5.40;;
58412;SDS011;44209;52.952;6.790;2024-01-27T05:45:45;16.97;;;5.00;;
58412;SDS011;44209;52.952;6.790;2024-01-27T05:48:11;19.03;;;5.00;;
58412;SDS011;44209;52.952;6.790;2024-01-27T05:50:37;15.40;;;4.93;;
58412;SDS011;44209;52.952;6.790;2024-01-27T05:53:03;21.00;;;4.90;;
58412;SDS011;44209;52.952;6.790;2024-01-27T05:55:28;19.77;;;5.67;;
58412;SDS011;44209;52.952;6.790;2024-01-27T05:57:54;20.73;;;5.47;;
58412;SDS011;44209;52.952;6.790;2024-01-27T06:00:22;19.10;;;5.13;;
58412;SDS011;44209;52.952;6.790;2024-01-27T06:02:47;20.40;;;5.67;;
58412;SDS011;44209;52.952;6.790;2024-01-27T06:05:14;21.60;;;6.03;;
58412;SDS011;44209;52.952;6.790;2024-01-27T06:07:40;17.67;;;5.17;;
58412;SDS011;44209;52.952;6.790;2024-01-27T06:10:09;20.30;;;5.47;;
58412;SDS011;44209;52.952;6.790;2024-01-27T06:12:35;19.90;;;5.53;;
58412;SDS011;44209;52.952;6.790;2024-01-27T06:15:02;17.27;;;5.60;;
58412;SDS011;44209;52.952;6.790;2024-01-27T06:17:28;15.20;;;5.30;;
58412;SDS011;44209;52.952;6.790;2024-01-27T06:19:54;19.40;;;6.07;;
58412;SDS011;44209;52.952;6.790;2024-01-27T06:22:20;22.53;;;6.17;;
58412;SDS011;44209;52.952;6.790;2024-01-27T06:24:46;15.27;;;4.63;;
58412;SDS011;44209;52.952;6.790;2024-01-27T06:27:11;19.50;;;5.27;;
58412;SDS011;44209;52.952;6.790;2024-01-27T06:29:38;21.00;;;5.43;;
58412;SDS011;44209;52.952;6.790;2024-01-27T06:32:05;18.87;;;5.40;;
58412;SDS011;44209;52.952;6.790;2024-01-27T06:34:31;18.80;;;6.00;;
58412;SDS011;44209;52.952;6.790;2024-01-27T06:36:58;27.63;;;6.50;;
58412;SDS011;44209;52.952;6.790;2024-01-27T06:39:24;21.23;;;6.30;;
58412;SDS011;44209;52.952;6.790;2024-01-27T06:41:49;21.20;;;6.23;;
58412;SDS011;44209;52.952;6.790;2024-01-27T06:44:15;19.73;;;6.17;;
58412;SDS011;44209;52.952;6.790;2024-01-27T06:46:41;17.13;;;5.97;;
58412;SDS011;44209;52.952;6.790;2024-01-27T06:49:06;19.07;;;6.27;;
58412;SDS011;44209;52.952;6.790;2024-01-27T06:51:32;20.83;;;6.07;;
58412;SDS011;44209;52.952;6.790;2024-01-27T06:53:58;21.07;;;6.50;;
58412;SDS011;44209;52.952;6.790;2024-01-27T06:56:23;21.73;;;7.30;;
58412;SDS011;44209;52.952;6.790;2024-01-27T06:58:49;19.00;;;6.40;;
58412;SDS011;44209;52.952;6.790;2024-01-27T07:01:15;19.07;;;6.70;;
58412;SDS011;44209;52.952;6.790;2024-01-27T07:03:41;24.27;;;6.73;;
58412;SDS011;44209;52.952;6.790;2024-01-27T07:06:06;20.33;;;7.20;;
58412;SDS011;44209;52.952;6.790;2024-01-27T07:08:32;25.77;;;8.00;;
58412;SDS011;44209;52.952;6.790;2024-01-27T07:10:58;22.90;;;7.10;;
58412;SDS011;44209;52.952;6.790;2024-01-27T07:13:23;18.50;;;8.07;;
58412;SDS011;44209;52.952;6.790;2024-01-27T07:15:54;22.37;;;7.57;;
58412;SDS011;44209;52.952;6.790;2024-01-27T07:18:20;28.70;;;8.67;;
58412;SDS011;44209;52.952;6.790;2024-01-27T07:20:47;26.17;;;9.07;;
58412;SDS011;44209;52.952;6.790;2024-01-27T07:23:13;25.07;;;9.30;;
58412;SDS011;44209;52.952;6.790;2024-01-27T07:25:39;23.13;;;8.23;;
58412;SDS011;44209;52.952;6.790;2024-01-27T07:28:04;19.33;;;8.17;;
58412;SDS011;44209;52.952;6.790;2024-01-27T07:30:30;20.60;;;8.47;;
58412;SDS011;44209;52.952;6.790;2024-01-27T07:32:56;23.63;;;9.37;;
58412;SDS011;44209;52.952;6.790;2024-01-27T07:35:22;24.03;;;9.90;;
58412;SDS011;44209;52.952;6.790;2024-01-27T07:37:53;21.90;;;9.63;;
58412;SDS011;44209;52.952;6.790;2024-01-27T07:40:19;25.53;;;10.13;;
58412;SDS011;44209;52.952;6.790;2024-01-27T07:42:44;25.83;;;9.63;;
58412;SDS011;44209;52.952;6.790;2024-01-27T07:45:10;20.57;;;9.97;;
58412;SDS011;44209;52.952;6.790;2024-01-27T07:47:36;26.73;;;10.13;;
58412;SDS011;44209;52.952;6.790;2024-01-27T07:50:02;28.07;;;11.00;;
58412;SDS011;44209;52.952;6.790;2024-01-27T07:52:28;28.50;;;10.47;;
58412;SDS011;44209;52.952;6.790;2024-01-27T07:54:53;28.87;;;10.27;;
58412;SDS011;44209;52.952;6.790;2024-01-27T07:57:19;24.37;;;10.27;;
58412;SDS011;44209;52.952;6.790;2024-01-27T07:59:45;26.67;;;10.53;;
58412;SDS011;44209;52.952;6.790;2024-01-27T08:02:11;27.83;;;9.77;;
58412;SDS011;44209;52.952;6.790;2024-01-27T08:04:37;21.60;;;10.10;;
58412;SDS011;44209;52.952;6.790;2024-01-27T08:07:03;22.27;;;9.73;;
58412;SDS011;44209;52.952;6.790;2024-01-27T08:09:34;29.50;;;10.90;;
58412;SDS011;44209;52.952;6.790;2024-01-27T08:12:03;32.50;;;11.33;;
58412;SDS011;44209;52.952;6.790;2024-01-27T08:14:28;24.77;;;9.90;;
58412;SDS011;44209;52.952;6.790;2024-01-27T08:16:58;22.80;;;9.30;;
58412;SDS011;44209;52.952;6.790;2024-01-27T08:19:24;21.77;;;9.73;;
58412;SDS011;44209;52.952;6.790;2024-01-27T08:21:50;19.90;;;9.63;;
58412;SDS011;44209;52.952;6.790;2024-01-27T08:24:16;22.73;;;8.70;;
58412;SDS011;44209;52.952;6.790;2024-01-27T08:26:42;22.10;;;10.17;;
58412;SDS011;44209;52.952;6.790;2024-01-27T08:29:10;21.20;;;9.40;;
58412;SDS011;44209;52.952;6.790;2024-01-27T08:31:36;19.83;;;9.30;;
58412;SDS011;44209;52.952;6.790;2024-01-27T08:34:04;26.17;;;10.10;;
58412;SDS011;44209;52.952;6.790;2024-01-27T08:36:30;23.13;;;9.43;;
58412;SDS011;44209;52.952;6.790;2024-01-27T08:38:57;28.30;;;10.57;;
58412;SDS011;44209;52.952;6.790;2024-01-27T08:41:23;21.87;;;10.03;;
58412;SDS011;44209;52.952;6.790;2024-01-27T08:43:48;20.70;;;9.87;;
58412;SDS011;44209;52.952;6.790;2024-01-27T08:46:14;25.87;;;9.27;;
58412;SDS011;44209;52.952;6.790;2024-01-27T08:48:40;27.43;;;9.90;;
58412;SDS011;44209;52.952;6.790;2024-01-27T08:51:09;24.27;;;9.53;;
58412;SDS011;44209;52.952;6.790;2024-01-27T08:53:36;20.57;;;9.47;;
58412;SDS011;44209;52.952;6.790;2024-01-27T08:56:02;23.80;;;10.60;;
58412;SDS011;44209;52.952;6.790;2024-01-27T08:58:28;19.43;;;8.83;;
58412;SDS011;44209;52.952;6.790;2024-01-27T09:00:54;16.43;;;8.90;;
58412;SDS011;44209;52.952;6.790;2024-01-27T09:03:19;25.17;;;9.87;;
58412;SDS011;44209;52.952;6.790;2024-01-27T09:05:48;22.60;;;10.30;;
58412;SDS011;44209;52.952;6.790;2024-01-27T09:08:15;22.07;;;8.93;;
58412;SDS011;44209;52.952;6.790;2024-01-27T09:10:41;17.27;;;9.20;;
58412;SDS011;44209;52.952;6.790;2024-01-27T09:13:07;23.13;;;9.50;;
58412;SDS011;44209;52.952;6.790;2024-01-27T09:15:32;28.43;;;10.30;;
58412;SDS011;44209;52.952;6.790;2024-01-27T09:17:58;17.80;;;9.43;;
58412;SDS011;44209;52.952;6.790;2024-01-27T09:20:24;20.43;;;9.37;;
58412;SDS011;44209;52.952;6.790;2024-01-27T09:22:50;21.77;;;9.83;;
58412;SDS011;44209;52.952;6.790;2024-01-27T09:25:16;25.67;;;10.10;;
58412;SDS011;44209;52.952;6.790;2024-01-27T09:27:41;22.33;;;9.50;;
58412;SDS011;44209;52.952;6.790;2024-01-27T09:30:07;20.23;;;9.47;;
58412;SDS011;44209;52.952;6.790;2024-01-27T09:32:33;19.83;;;9.17;;
58412;SDS011;44209;52.952;6.790;2024-01-27T09:34:59;24.00;;;9.90;;
58412;SDS011;44209;52.952;6.790;2024-01-27T09:37:24;24.60;;;10.17;;
58412;SDS011;44209;52.952;6.790;2024-01-27T09:39:50;23.43;;;10.07;;
58412;SDS011;44209;52.952;6.790;2024-01-27T09:42:16;21.00;;;9.77;;
58412;SDS011;44209;52.952;6.790;2024-01-27T09:44:46;20.57;;;10.37;;
58412;SDS011;44209;52.952;6.790;2024-01-27T09:47:14;21.23;;;9.50;;
58412;SDS011;44209;52.952;6.790;2024-01-27T09:49:41;24.33;;;9.83;;
58412;SDS011;44209;52.952;6.790;2024-01-27T09:52:07;19.23;;;9.70;;
58412;SDS011;44209;52.952;6.790;2024-01-27T09:54:34;22.70;;;9.90;;
58412;SDS011;44209;52.952;6.790;2024-01-27T09:57:00;22.00;;;10.07;;
58412;SDS011;44209;52.952;6.790;2024-01-27T09:59:26;22.67;;;9.77;;
58412;SDS011;44209;52.952;6.790;2024-01-27T10:01:53;21.60;;;9.50;;
58412;SDS011;44209;52.952;6.790;2024-01-27T10:04:22;24.67;;;9.70;;
58412;SDS011;44209;52.952;6.790;2024-01-27T10:06:49;21.67;;;10.07;;
58412;SDS011;44209;52.952;6.790;2024-01-27T10:09:16;20.97;;;11.20;;
58412;SDS011;44209;52.952;6.790;2024-01-27T10:11:45;27.60;;;11.10;;
58412;SDS011;44209;52.952;6.790;2024-01-27T10:14:14;23.90;;;10.30;;
58412;SDS011;44209;52.952;6.790;2024-01-27T10:16:43;25.57;;;9.97;;
58412;SDS011;44209;52.952;6.790;2024-01-27T10:19:17;23.80;;;9.93;;
58412;SDS011;44209;52.952;6.790;2024-01-27T10:21:47;17.77;;;9.50;;
58412;SDS011;44209;52.952;6.790;2024-01-27T10:24:13;23.97;;;9.57;;
58412;SDS011;44209;52.952;6.790;2024-01-27T10:26:40;19.43;;;9.50;;
58412;SDS011;44209;52.952;6.790;2024-01-27T10:29:06;20.90;;;9.83;;
58412;SDS011;44209;52.952;6.790;2024-01-27T10:31:35;21.63;;;9.63;;
58412;SDS011;44209;52.952;6.790;2024-01-27T10:34:03;23.83;;;10.00;;
58412;SDS011;44209;52.952;6.790;2024-01-27T10:36:42;18.67;;;9.37;;
58412;SDS011;44209;52.952;6.790;2024-01-27T10:39:28;18.77;;;9.20;;
58412;SDS011;44209;52.952;6.790;2024-01-27T10:41:53;21.30;;;9.50;;
58412;SDS011;44209;52.952;6.790;2024-01-27T10:44:19;19.90;;;9.57;;
58412;SDS011;44209;52.952;6.790;2024-01-27T10:46:46;18.13;;;9.43;;
58412;SDS011;44209;52.952;6.790;2024-01-27T10:49:13;20.93;;;9.33;;
58412;SDS011;44209;52.952;6.790;2024-01-27T10:51:44;18.23;;;8.10;;
58412;SDS011;44209;52.952;6.790;2024-01-27T10:54:13;21.70;;;9.45;;
58412;SDS011;44209;52.952;6.790;2024-01-27T10:56:43;25.13;;;9.10;;
58412;SDS011;44209;52.952;6.790;2024-01-27T10:59:11;20.77;;;8.90;;
58412;SDS011;44209;52.952;6.790;2024-01-27T11:01:40;23.33;;;9.07;;
58412;SDS011;44209;52.952;6.790;2024-01-27T11:04:08;23.40;;;9.10;;
58412;SDS011;44209;52.952;6.790;2024-01-27T11:06:36;16.90;;;8.10;;
58412;SDS011;44209;52.952;6.790;2024-01-27T11:09:03;17.60;;;7.63;;
58412;SDS011;44209;52.952;6.790;2024-01-27T11:11:30;19.17;;;7.40;;
58412;SDS011;44209;52.952;6.790;2024-01-27T11:13:57;19.20;;;8.23;;
58412;SDS011;44209;52.952;6.790;2024-01-27T11:16:23;19.13;;;7.87;;
58412;SDS011;44209;52.952;6.790;2024-01-27T11:18:49;14.70;;;7.63;;
58412;SDS011;44209;52.952;6.790;2024-01-27T11:21:16;19.27;;;7.67;;
58412;SDS011;44209;52.952;6.790;2024-01-27T11:23:42;24.73;;;7.67;;
58412;SDS011;44209;52.952;6.790;2024-01-27T11:26:08;19.03;;;7.20;;
58412;SDS011;44209;52.952;6.790;2024-01-27T11:28:35;20.83;;;7.20;;
58412;SDS011;44209;52.952;6.790;2024-01-27T11:31:08;20.83;;;7.00;;
58412;SDS011;44209;52.952;6.790;2024-01-27T11:33:40;18.33;;;6.77;;
58412;SDS011;44209;52.952;6.790;2024-01-27T11:36:17;21.07;;;6.93;;
58412;SDS011;44209;52.952;6.790;2024-01-27T11:38:48;19.57;;;6.63;;
58412;SDS011;44209;52.952;6.790;2024-01-27T11:41:27;16.67;;;6.17;;
58412;SDS011;44209;52.952;6.790;2024-01-27T11:43:54;17.13;;;6.33;;
58412;SDS011;44209;52.952;6.790;2024-01-27T11:46:21;16.97;;;7.23;;
58412;SDS011;44209;52.952;6.790;2024-01-27T11:48:47;19.87;;;7.53;;
58412;SDS011;44209;52.952;6.790;2024-01-27T11:51:14;17.87;;;6.37;;
58412;SDS011;44209;52.952;6.790;2024-01-27T11:53:40;17.83;;;6.67;;
58412;SDS011;44209;52.952;6.790;2024-01-27T11:56:06;16.17;;;6.17;;
58412;SDS011;44209;52.952;6.790;2024-01-27T11:58:32;20.30;;;6.57;;
58412;SDS011;44209;52.952;6.790;2024-01-27T12:00:58;16.23;;;6.10;;
58412;SDS011;44209;52.952;6.790;2024-01-27T12:03:24;19.43;;;7.17;;
58412;SDS011;44209;52.952;6.790;2024-01-27T12:05:50;19.87;;;6.70;;
58412;SDS011;44209;52.952;6.790;2024-01-27T12:08:19;17.10;;;6.70;;
58412;SDS011;44209;52.952;6.790;2024-01-27T12:10:44;16.77;;;6.70;;
58412;SDS011;44209;52.952;6.790;2024-01-27T12:13:10;17.20;;;6.70;;
58412;SDS011;44209;52.952;6.790;2024-01-27T12:15:36;15.73;;;6.20;;
58412;SDS011;44209;52.952;6.790;2024-01-27T12:18:04;16.00;;;6.30;;
58412;SDS011;44209;52.952;6.790;2024-01-27T12:20:30;19.23;;;6.47;;
58412;SDS011;44209;52.952;6.790;2024-01-27T12:23:07;15.57;;;5.13;;
58412;SDS011;44209;52.952;6.790;2024-01-27T12:25:33;18.67;;;6.27;;
58412;SDS011;44209;52.952;6.790;2024-01-27T12:28:03;15.10;;;5.77;;
58412;SDS011;44209;52.952;6.790;2024-01-27T12:30:31;17.40;;;5.50;;
58412;SDS011;44209;52.952;6.790;2024-01-27T12:32:57;21.50;;;5.57;;
58412;SDS011;44209;52.952;6.790;2024-01-27T12:35:23;14.27;;;5.67;;
58412;SDS011;44209;52.952;6.790;2024-01-27T12:37:50;18.57;;;5.43;;
58412;SDS011;44209;52.952;6.790;2024-01-27T12:40:22;19.40;;;5.40;;
58412;SDS011;44209;52.952;6.790;2024-01-27T12:42:48;16.67;;;5.80;;
58412;SDS011;44209;52.952;6.790;2024-01-27T12:45:14;17.03;;;5.50;;
58412;SDS011;44209;52.952;6.790;2024-01-27T12:47:40;15.00;;;5.83;;
58412;SDS011;44209;52.952;6.790;2024-01-27T12:50:06;18.40;;;5.60;;
58412;SDS011;44209;52.952;6.790;2024-01-27T12:52:32;15.33;;;6.03;;
58412;SDS011;44209;52.952;6.790;2024-01-27T12:54:58;17.90;;;6.30;;
58412;SDS011;44209;52.952;6.790;2024-01-27T12:57:24;15.37;;;5.57;;
58412;SDS011;44209;52.952;6.790;2024-01-27T12:59:50;20.23;;;6.63;;
58412;SDS011;44209;52.952;6.790;2024-01-27T13:02:16;15.27;;;6.80;;
58412;SDS011;44209;52.952;6.790;2024-01-27T13:04:42;15.90;;;6.60;;
58412;SDS011;44209;52.952;6.790;2024-01-27T13:07:09;15.83;;;7.17;;
58412;SDS011;44209;52.952;6.790;2024-01-27T13:09:35;20.43;;;6.10;;
58412;SDS011;44209;52.952;6.790;2024-01-27T13:12:02;19.07;;;6.80;;
58412;SDS011;44209;52.952;6.790;2024-01-27T13:14:28;14.50;;;6.50;;
58412;SDS011;44209;52.952;6.790;2024-01-27T13:16:54;16.60;;;6.53;;
58412;SDS011;44209;52.952;6.790;2024-01-27T13:19:21;16.90;;;5.97;;
58412;SDS011;44209;52.952;6.790;2024-01-27T13:21:47;12.63;;;5.30;;
58412;SDS011;44209;52.952;6.790;2024-01-27T13:24:13;16.67;;;5.83;;
58412;SDS011;44209;52.952;6.790;2024-01-27T13:26:39;14.97;;;5.50;;
58412;SDS011;44209;52.952;6.790;2024-01-27T13:29:04;16.70;;;5.20;;
58412;SDS011;44209;52.952;6.790;2024-01-27T13:31:30;14.87;;;5.50;;
58412;SDS011;44209;52.952;6.790;2024-01-27T13:33:56;16.33;;;4.77;;
58412;SDS011;44209;52.952;6.790;2024-01-27T13:36:23;15.87;;;5.23;;
58412;SDS011;44209;52.952;6.790;2024-01-27T13:38:50;14.70;;;5.50;;
58412;SDS011;44209;52.952;6.790;2024-01-27T13:41:17;19.63;;;5.67;;
58412;SDS011;44209;52.952;6.790;2024-01-27T13:43:43;15.00;;;5.23;;
58412;SDS011;44209;52.952;6.790;2024-01-27T13:46:09;16.40;;;5.57;;
58412;SDS011;44209;52.952;6.790;2024-01-27T13:48:35;16.67;;;5.47;;
58412;SDS011;44209;52.952;6.790;2024-01-27T13:51:01;14.00;;;4.67;;
58412;SDS011;44209;52.952;6.790;2024-01-27T13:53:27;17.03;;;5.63;;
58412;SDS011;44209;52.952;6.790;2024-01-27T13:55:52;14.37;;;4.80;;
58412;SDS011;44209;52.952;6.790;2024-01-27T13:58:18;14.20;;;4.90;;
58412;SDS011;44209;52.952;6.790;2024-01-27T14:00:45;16.20;;;5.30;;
58412;SDS011;44209;52.952;6.790;2024-01-27T14:03:10;17.27;;;5.00;;
58412;SDS011;44209;52.952;6.790;2024-01-27T14:05:37;16.50;;;5.50;;
58412;SDS011;44209;52.952;6.790;2024-01-27T14:08:03;15.70;;;5.10;;
58412;SDS011;44209;52.952;6.790;2024-01-27T14:10:32;15.67;;;4.80;;
58412;SDS011;44209;52.952;6.790;2024-01-27T14:12:57;15.77;;;5.40;;
58412;SDS011;44209;52.952;6.790;2024-01-27T14:15:23;16.50;;;5.37;;
58412;SDS011;44209;52.952;6.790;2024-01-27T14:17:49;23.03;;;6.13;;
58412;SDS011;44209;52.952;6.790;2024-01-27T14:20:15;13.57;;;5.50;;
58412;SDS011;44209;52.952;6.790;2024-01-27T14:22:40;15.07;;;5.70;;
58412;SDS011;44209;52.952;6.790;2024-01-27T14:25:06;15.53;;;5.50;;
58412;SDS011;44209;52.952;6.790;2024-01-27T14:27:33;15.77;;;5.60;;
58412;SDS011;44209;52.952;6.790;2024-01-27T14:30:00;16.47;;;5.50;;